createdAt,value
2023-04-18T00:00:27.156Z,102744.31
2023-04-18T00:02:55.033Z,102749.53
2023-04-18T00:05:21.989Z,102751.06
2023-04-18T00:07:48.596Z,102744.00
2023-04-18T00:10:15.403Z,102751.22
2023-04-18T00:12:42.895Z,102757.19
2023-04-18T00:15:09.710Z,102761.19
2023-04-18T00:17:38.357Z,102751.59
2023-04-18T00:20:07.835Z,102747.38
2023-04-18T00:22:34.294Z,102749.66
2023-04-18T00:25:00.733Z,102753.66
2023-04-18T00:27:27.160Z,102762.03
2023-04-18T00:29:53.579Z,102757.94
2023-04-18T00:32:20.093Z,102759.94
2023-04-18T00:34:46.509Z,102766.28
2023-04-18T00:37:12.995Z,102760.22
2023-04-18T00:39:41.675Z,102761.63
2023-04-18T00:42:08.597Z,102767.44
2023-04-18T00:44:35.041Z,102764.75
2023-04-18T00:47:01.505Z,102751.47
2023-04-18T00:49:28.395Z,102755.47
2023-04-18T00:51:56.413Z,102760.31
2023-04-18T00:54:24.398Z,102758.06
2023-04-18T00:56:51.315Z,102757.53
2023-04-18T00:59:18.898Z,102754.28
2023-04-18T01:01:45.457Z,102745.16
2023-04-18T01:04:12.588Z,102748.81
2023-04-18T01:06:40.729Z,102757.66
2023-04-18T01:09:07.199Z,102759.38
2023-04-18T01:11:33.653Z,102747.69
2023-04-18T01:14:05.500Z,102747.84
2023-04-18T01:16:36.762Z,102748.16
2023-04-18T01:19:04.782Z,102749.28
2023-04-18T01:21:36.037Z,102747.03
2023-04-18T01:24:13.467Z,102749.34
2023-04-18T01:26:43.617Z,102739.59
2023-04-18T01:29:10.688Z,102742.59
2023-04-18T01:31:38.120Z,102749.63
2023-04-18T01:34:05.448Z,102737.22
2023-04-18T01:36:32.633Z,102738.06
2023-04-18T01:38:59.683Z,102738.06
2023-04-18T01:41:28.934Z,102738.91
2023-04-18T01:43:55.427Z,102733.09
2023-04-18T01:46:21.917Z,102731.56
2023-04-18T01:48:48.431Z,102738.78
2023-04-18T01:51:14.919Z,102731.88
2023-04-18T01:53:41.919Z,102730.34
2023-04-18T01:56:10.096Z,102721.59
2023-04-18T01:58:37.218Z,102727.94
2023-04-18T02:01:04.043Z,102729.22
2023-04-18T02:03:30.944Z,102725.84
2023-04-18T02:05:57.549Z,102731.19
2023-04-18T02:08:24.060Z,102730.50
2023-04-18T02:10:50.708Z,102723.75
2023-04-18T02:13:17.153Z,102724.91
2023-04-18T02:15:45.896Z,102728.00
2023-04-18T02:18:15.685Z,102727.31
2023-04-18T02:20:42.060Z,102718.84
2023-04-18T02:23:08.496Z,102716.47
2023-04-18T02:25:34.935Z,102718.16
2023-04-18T02:28:01.531Z,102711.41
2023-04-18T02:30:30.668Z,102726.66
2023-04-18T02:32:57.286Z,102719.84
2023-04-18T02:35:24.427Z,102722.13
2023-04-18T02:37:50.830Z,102719.88
2023-04-18T02:40:17.927Z,102723.69
2023-04-18T02:42:44.438Z,102726.81
2023-04-18T02:45:14.174Z,102729.78
2023-04-18T02:47:53.889Z,102726.25
2023-04-18T02:50:22.443Z,102724.13
2023-04-18T02:52:49.015Z,102728.09
2023-04-18T02:55:17.553Z,102723.03
2023-04-18T02:57:44.959Z,102727.69
2023-04-18T03:00:14.339Z,102725.41
2023-04-18T03:02:58.754Z,102730.78
2023-04-18T03:05:34.802Z,102724.16
2023-04-18T03:08:03.956Z,102722.75
2023-04-18T03:10:31.229Z,102719.38
2023-04-18T03:12:57.686Z,102713.72
2023-04-18T03:15:24.800Z,102711.75
2023-04-18T03:17:52.484Z,102714.59
2023-04-18T03:20:21.071Z,102715.44
2023-04-18T03:22:47.467Z,102726.44
2023-04-18T03:25:17.842Z,102720.63
2023-04-18T03:27:49.700Z,102721.06
2023-04-18T03:30:18.054Z,102714.88
2023-04-18T03:32:50.119Z,102728.56
2023-04-18T03:35:16.564Z,102720.94
2023-04-18T03:37:43.168Z,102731.22
2023-04-18T03:40:11.499Z,102723.31
2023-04-18T03:42:37.896Z,102727.25
2023-04-18T03:45:04.573Z,102735.72
2023-04-18T03:47:33.578Z,102734.88
2023-04-18T03:50:00.121Z,102732.06
2023-04-18T03:52:29.195Z,102735.88
2023-04-18T03:54:56.274Z,102736.31
2023-04-18T03:57:26.385Z,102734.03
2023-04-18T03:59:53.734Z,102740.38
2023-04-18T04:02:21.252Z,102731.78
2023-04-18T04:04:49.888Z,102734.31
2023-04-18T04:07:16.420Z,102737.41
2023-04-18T04:09:42.861Z,102738.56
2023-04-18T04:12:09.337Z,102738.56
2023-04-18T04:14:35.942Z,102739.97
2023-04-18T04:17:02.828Z,102732.88
2023-04-18T04:19:30.529Z,102733.00
2023-04-18T04:22:07.294Z,102730.88
2023-04-18T04:24:33.892Z,102732.13
2023-04-18T04:27:01.491Z,102737.09
2023-04-18T04:29:29.028Z,102733.97
2023-04-18T04:31:59.165Z,102735.34
2023-04-18T04:34:31.623Z,102735.94
2023-04-18T04:37:00.787Z,102744.66
2023-04-18T04:39:28.616Z,102740.16
2023-04-18T04:42:19.388Z,102739.16
2023-04-18T04:44:55.332Z,102736.16
2023-04-18T04:47:22.555Z,102741.94
2023-04-18T04:49:49.057Z,102749.56
2023-04-18T04:52:15.617Z,102748.44
2023-04-18T04:54:43.272Z,102753.66
2023-04-18T04:57:11.786Z,102756.19
2023-04-18T04:59:38.350Z,102757.03
2023-04-18T05:02:05.638Z,102750.66
2023-04-18T05:04:32.356Z,102749.38
2023-04-18T05:06:59.053Z,102755.56
2023-04-18T05:09:26.059Z,102755.44
2023-04-18T05:11:52.475Z,102757.00
2023-04-18T05:14:20.673Z,102759.38
2023-04-18T05:16:47.581Z,102754.56
2023-04-18T05:19:14.018Z,102765.84
2023-04-18T05:21:40.829Z,102764.41
2023-04-18T05:24:07.299Z,102763.97
2023-04-18T05:26:33.717Z,102759.13
2023-04-18T05:29:00.670Z,102766.59
2023-04-18T05:31:27.412Z,102766.16
2023-04-18T05:33:53.855Z,102772.06
2023-04-18T05:36:20.415Z,102773.44
2023-04-18T05:38:46.887Z,102779.38
2023-04-18T05:41:13.297Z,102768.34
2023-04-18T05:43:40.186Z,102773.41
2023-04-18T05:46:08.946Z,102781.84
2023-04-18T05:48:35.360Z,102770.81
2023-04-18T05:51:01.931Z,102777.59
2023-04-18T05:53:28.354Z,102775.28
2023-04-18T05:55:55.063Z,102773.81
2023-04-18T05:58:21.690Z,102771.66
2023-04-18T06:00:48.182Z,102774.91
2023-04-18T06:03:14.757Z,102776.47
2023-04-18T06:05:41.493Z,102784.91
2023-04-18T06:08:08.024Z,102791.00
2023-04-18T06:10:34.450Z,102776.53
2023-04-18T06:13:01.307Z,102792.41
2023-04-18T06:15:27.822Z,102792.78
2023-04-18T06:17:54.384Z,102785.94
2023-04-18T06:20:23.018Z,102786.34
2023-04-18T06:22:49.478Z,102783.38
2023-04-18T06:25:16.063Z,102790.16
2023-04-18T06:27:42.575Z,102784.84
2023-04-18T06:30:09.370Z,102789.13
2023-04-18T06:32:35.935Z,102785.34
2023-04-18T06:35:02.418Z,102786.94
2023-04-18T06:37:29.111Z,102784.59
2023-04-18T06:39:55.582Z,102789.06
2023-04-18T06:42:22.648Z,102788.13
2023-04-18T06:44:49.680Z,102790.34
2023-04-18T06:47:16.308Z,102791.25
2023-04-18T06:49:42.696Z,102792.09
2023-04-18T06:52:09.090Z,102800.28
2023-04-18T06:54:35.494Z,102797.31
2023-04-18T06:57:03.680Z,102807.59
2023-04-18T06:59:30.630Z,102795.13
2023-04-18T07:01:57.065Z,102806.47
2023-04-18T07:04:23.627Z,102804.16
2023-04-18T07:06:51.756Z,102808.41
2023-04-18T07:09:18.172Z,102807.56
2023-04-18T07:11:44.709Z,102803.78
2023-04-18T07:14:12.263Z,102814.53
2023-04-18T07:16:38.979Z,102800.75
2023-04-18T07:19:05.883Z,102811.88
2023-04-18T07:21:32.780Z,102812.22
2023-04-18T07:23:59.156Z,102812.22
2023-04-18T07:26:27.511Z,102808.75
2023-04-18T07:28:53.983Z,102808.75
2023-04-18T07:31:20.523Z,102812.00
2023-04-18T07:33:47.012Z,102802.28
2023-04-18T07:36:13.561Z,102811.22
2023-04-18T07:38:40.070Z,102802.28
2023-04-18T07:41:06.548Z,102813.94
2023-04-18T07:43:33.055Z,102806.75
2023-04-18T07:45:59.492Z,102804.44
2023-04-18T07:48:26.019Z,102802.25
2023-04-18T07:50:52.976Z,102796.91
2023-04-18T07:53:19.774Z,102800.66
2023-04-18T07:55:46.506Z,102813.66
2023-04-18T07:58:13.055Z,102812.84
2023-04-18T08:00:39.747Z,102806.59
2023-04-18T08:03:07.636Z,102808.81
2023-04-18T08:05:34.759Z,102811.31
2023-04-18T08:08:01.511Z,102808.81
2023-04-18T08:10:28.105Z,102810.97
2023-04-18T08:12:54.604Z,102806.97
2023-04-18T08:15:21.191Z,102816.31
2023-04-18T08:17:49.121Z,102818.72
2023-04-18T08:20:15.797Z,102803.03
2023-04-18T08:22:57.683Z,102803.00
2023-04-18T08:25:28.985Z,102822.91
2023-04-18T08:27:55.906Z,102820.13
2023-04-18T08:30:22.435Z,102836.47
2023-04-18T08:32:49.630Z,102833.50
2023-04-18T08:35:16.420Z,102831.94
2023-04-18T08:37:43.309Z,102823.53
2023-04-18T08:40:09.986Z,102826.56
2023-04-18T08:42:38.351Z,102822.19
2023-04-18T08:45:06.859Z,102833.84
2023-04-18T08:47:35.123Z,102828.13
2023-04-18T08:50:01.939Z,102824.84
2023-04-18T08:52:30.737Z,102835.94
2023-04-18T08:54:58.678Z,102821.03
2023-04-18T08:57:27.976Z,102828.50
2023-04-18T08:59:55.159Z,102823.44
2023-04-18T09:02:23.266Z,102831.66
2023-04-18T09:04:52.668Z,102828.25
2023-04-18T09:07:28.512Z,102821.25
2023-04-18T09:09:59.276Z,102832.09
2023-04-18T09:12:27.654Z,102821.97
2023-04-18T09:15:09.833Z,102815.16
2023-04-18T09:17:38.729Z,102820.56
2023-04-18T09:20:06.330Z,102821.13
2023-04-18T09:22:50.272Z,102820.19
2023-04-18T09:25:42.721Z,102819.38
2023-04-18T09:28:31.745Z,102820.84
2023-04-18T09:31:18.908Z,102821.16
2023-04-18T09:33:54.514Z,102824.28
2023-04-18T09:36:28.191Z,102817.41
2023-04-18T09:38:57.002Z,102827.22
2023-04-18T09:41:24.336Z,102812.41
2023-04-18T09:44:10.958Z,102814.81
2023-04-18T09:46:39.905Z,102806.19
2023-04-18T09:49:07.395Z,102808.69
2023-04-18T09:51:35.266Z,102812.13
2023-04-18T09:54:04.941Z,102817.59
2023-04-18T09:56:34.339Z,102808.38
2023-04-18T09:59:09.128Z,102807.22
2023-04-18T10:01:36.490Z,102819.47
2023-04-18T10:04:06.458Z,102806.91
2023-04-18T10:06:39.837Z,102811.47
2023-04-18T10:09:09.296Z,102801.81
2023-04-18T10:11:36.443Z,102791.72
2023-04-18T10:14:07.660Z,102806.53
2023-04-18T10:16:36.280Z,102818.69
2023-04-18T10:19:26.838Z,102810.56
2023-04-18T10:21:54.764Z,102801.22
2023-04-18T10:24:52.742Z,102799.88
2023-04-18T10:27:47.829Z,102792.69
2023-04-18T10:30:15.239Z,102805.91
2023-04-18T10:32:41.759Z,102801.41
2023-04-18T10:35:08.446Z,102799.34
2023-04-18T10:37:34.891Z,102803.91
2023-04-18T10:40:05.987Z,102797.47
2023-04-18T10:42:47.601Z,102786.16
2023-04-18T10:45:22.219Z,102786.91
2023-04-18T10:47:49.266Z,102782.72
2023-04-18T10:50:16.894Z,102784.19
2023-04-18T10:52:43.419Z,102775.41
2023-04-18T10:55:20.732Z,102760.94
2023-04-18T10:57:49.038Z,102762.63
2023-04-18T11:00:17.490Z,102764.56
2023-04-18T11:02:53.711Z,102769.53
2023-04-18T11:05:23.421Z,102769.94
2023-04-18T11:07:49.934Z,102771.75
2023-04-18T11:10:20.248Z,102768.19
2023-04-18T11:12:47.341Z,102769.53
2023-04-18T11:15:22.023Z,102766.94
2023-04-18T11:18:02.974Z,102769.44
2023-04-18T11:20:40.877Z,102756.94
2023-04-18T11:23:20.095Z,102763.06
2023-04-18T11:25:49.400Z,102750.91
2023-04-18T11:28:20.872Z,102754.00
2023-04-18T11:30:47.558Z,102753.88
2023-04-18T11:33:14.868Z,102760.19
2023-04-18T11:35:43.204Z,102742.34
2023-04-18T11:38:12.984Z,102747.88
2023-04-18T11:40:39.682Z,102742.50
2023-04-18T11:43:07.283Z,102755.47
2023-04-18T11:45:33.892Z,102759.78
2023-04-18T11:48:01.027Z,102757.53
2023-04-18T11:50:27.661Z,102752.31
2023-04-18T11:52:56.430Z,102768.25
2023-04-18T11:55:24.849Z,102766.38
2023-04-18T11:57:53.721Z,102752.84
2023-04-18T12:00:31.309Z,102760.00
2023-04-18T12:02:59.208Z,102762.31
2023-04-18T12:05:28.194Z,102757.06
2023-04-18T12:07:55.925Z,102754.16
2023-04-18T12:10:22.303Z,102759.34
2023-04-18T12:12:53.881Z,102761.09
2023-04-18T12:15:23.506Z,102750.81
2023-04-18T12:17:51.714Z,102751.44
2023-04-18T12:20:18.403Z,102761.94
2023-04-18T12:22:49.981Z,102759.59
2023-04-18T12:25:26.911Z,102748.72
2023-04-18T12:27:55.035Z,102754.34
2023-04-18T12:30:23.353Z,102758.63
2023-04-18T12:32:51.341Z,102754.03
2023-04-18T12:35:19.363Z,102752.69
2023-04-18T12:37:52.047Z,102750.81
2023-04-18T12:40:19.944Z,102742.09
2023-04-18T12:42:47.348Z,102743.81
2023-04-18T12:45:15.107Z,102737.34
2023-04-18T12:47:43.795Z,102735.38
2023-04-18T12:50:12.257Z,102741.66
2023-04-18T12:52:40.222Z,102745.03
2023-04-18T12:55:08.170Z,102741.50
2023-04-18T12:57:34.826Z,102742.28
2023-04-18T13:00:01.541Z,102742.78
2023-04-18T13:02:29.249Z,102738.31
2023-04-18T13:04:57.306Z,102740.72
2023-04-18T13:07:24.854Z,102740.78
2023-04-18T13:09:51.299Z,102743.16
2023-04-18T13:12:17.685Z,102743.56
2023-04-18T13:14:44.086Z,102747.19
2023-04-18T13:17:10.546Z,102743.44
2023-04-18T13:19:37.017Z,102739.25
2023-04-18T13:22:04.557Z,102739.50
2023-04-18T13:24:30.965Z,102747.63
2023-04-18T13:26:57.419Z,102746.66
2023-04-18T13:29:23.846Z,102732.44
2023-04-18T13:31:50.491Z,102729.97
2023-04-18T13:34:17.218Z,102746.22
2023-04-18T13:36:43.601Z,102739.53
2023-04-18T13:39:10.629Z,102740.00
2023-04-18T13:41:37.032Z,102739.28
2023-04-18T13:44:03.526Z,102734.84
2023-04-18T13:46:30.895Z,102738.25
2023-04-18T13:48:57.433Z,102728.78
2023-04-18T13:51:23.820Z,102732.03
2023-04-18T13:53:51.510Z,102729.19
2023-04-18T13:56:17.909Z,102728.06
2023-04-18T13:58:44.342Z,102730.66
2023-04-18T14:01:11.648Z,102723.59
2023-04-18T14:03:39.895Z,102730.91
2023-04-18T14:06:07.959Z,102731.53
2023-04-18T14:08:34.376Z,102739.47
2023-04-18T14:11:00.797Z,102731.88
2023-04-18T14:13:27.189Z,102733.13
2023-04-18T14:15:54.024Z,102723.06
2023-04-18T14:18:21.675Z,102725.81
2023-04-18T14:20:48.578Z,102721.41
2023-04-18T14:23:15.946Z,102731.50
2023-04-18T14:25:43.106Z,102721.81
2023-04-18T14:28:11.349Z,102724.47
2023-04-18T14:30:39.345Z,102717.03
2023-04-18T14:33:06.642Z,102711.38
2023-04-18T14:35:33.262Z,102708.69
2023-04-18T14:37:59.699Z,102708.84
2023-04-18T14:40:27.062Z,102711.41
2023-04-18T14:42:53.478Z,102707.53
2023-04-18T14:45:19.909Z,102702.84
2023-04-18T14:47:46.412Z,102702.66
2023-04-18T14:50:12.892Z,102702.91
2023-04-18T14:52:40.320Z,102696.16
2023-04-18T14:55:08.390Z,102706.25
2023-04-18T14:57:36.533Z,102698.47
2023-04-18T15:00:10.429Z,102698.28
2023-04-18T15:02:37.440Z,102697.03
2023-04-18T15:05:04.956Z,102695.97
2023-04-18T15:07:31.601Z,102692.63
2023-04-18T15:09:58.045Z,102683.41
2023-04-18T15:12:24.776Z,102694.28
2023-04-18T15:14:51.529Z,102687.38
2023-04-18T15:17:18.008Z,102680.00
2023-04-18T15:19:44.541Z,102681.25
2023-04-18T15:22:11.043Z,102697.44
2023-04-18T15:24:37.422Z,102696.31
2023-04-18T15:27:04.008Z,102692.13
2023-04-18T15:29:30.454Z,102684.03
2023-04-18T15:31:56.875Z,102679.19
2023-04-18T15:34:23.717Z,102683.41
2023-04-18T15:36:50.415Z,102682.16
2023-04-18T15:39:20.137Z,102680.03
2023-04-18T15:41:47.211Z,102673.53
2023-04-18T15:44:13.786Z,102669.13
2023-04-18T15:46:40.473Z,102672.06
2023-04-18T15:49:07.384Z,102669.47
2023-04-18T15:51:33.816Z,102671.63
2023-04-18T15:54:00.276Z,102667.22
2023-04-18T15:56:32.462Z,102677.91
2023-04-18T15:59:00.137Z,102669.31
2023-04-18T16:01:26.736Z,102659.81
2023-04-18T16:03:53.189Z,102668.69
2023-04-18T16:06:23.236Z,102661.38
2023-04-18T16:08:49.964Z,102659.50
2023-04-18T16:11:16.451Z,102660.34
2023-04-18T16:13:43.234Z,102663.69
2023-04-18T16:16:09.808Z,102667.47
2023-04-18T16:18:36.324Z,102662.88
2023-04-18T16:21:02.844Z,102669.56
2023-04-18T16:23:31.846Z,102662.44
2023-04-18T16:25:58.342Z,102667.44
2023-04-18T16:28:24.749Z,102668.88
2023-04-18T16:30:52.069Z,102667.81
2023-04-18T16:33:24.406Z,102672.63
2023-04-18T16:35:51.502Z,102677.06
2023-04-18T16:38:17.993Z,102668.09
2023-04-18T16:40:44.423Z,102670.81
2023-04-18T16:43:10.800Z,102669.56
2023-04-18T16:45:37.207Z,102669.34
2023-04-18T16:48:03.891Z,102671.88
2023-04-18T16:50:30.383Z,102665.59
2023-04-18T16:52:56.818Z,102664.75
2023-04-18T16:55:23.318Z,102659.94
2023-04-18T16:57:50.840Z,102661.59
2023-04-18T17:00:17.474Z,102656.16
2023-04-18T17:02:44.183Z,102660.75
2023-04-18T17:05:11.112Z,102664.91
2023-04-18T17:07:37.608Z,102648.09
2023-04-18T17:10:04.340Z,102656.88
2023-04-18T17:12:31.255Z,102662.66
2023-04-18T17:14:57.634Z,102658.19
2023-04-18T17:17:24.103Z,102655.47
2023-04-18T17:19:50.756Z,102660.03
2023-04-18T17:22:17.303Z,102665.88
2023-04-18T17:24:43.699Z,102664.59
2023-04-18T17:27:10.200Z,102665.44
2023-04-18T17:29:37.218Z,102667.59
2023-04-18T17:32:04.012Z,102664.69
2023-04-18T17:34:30.754Z,102674.56
2023-04-18T17:36:57.174Z,102668.09
2023-04-18T17:39:23.543Z,102674.31
2023-04-18T17:41:50.125Z,102674.72
2023-04-18T17:44:16.620Z,102674.09
2023-04-18T17:46:42.997Z,102673.41
2023-04-18T17:49:09.789Z,102671.88
2023-04-18T17:51:36.298Z,102667.00
2023-04-18T17:54:02.891Z,102669.25
2023-04-18T17:56:30.389Z,102663.31
2023-04-18T17:58:57.140Z,102665.56
2023-04-18T18:01:24.670Z,102667.63
2023-04-18T18:03:53.490Z,102668.00
2023-04-18T18:06:20.161Z,102673.19
2023-04-18T18:08:46.591Z,102671.28
2023-04-18T18:11:13.126Z,102663.25
2023-04-18T18:13:39.518Z,102667.22
2023-04-18T18:16:06.955Z,102679.50
2023-04-18T18:18:34.395Z,102672.31
2023-04-18T18:21:00.822Z,102678.09
2023-04-18T18:23:27.311Z,102678.38
2023-04-18T18:25:53.689Z,102679.41
2023-04-18T18:28:20.255Z,102674.13
2023-04-18T18:30:46.693Z,102684.50
2023-04-18T18:33:13.082Z,102683.81
2023-04-18T18:35:39.475Z,102679.81
2023-04-18T18:38:05.982Z,102676.16
2023-04-18T18:40:32.432Z,102687.16
2023-04-18T18:42:59.356Z,102681.16
2023-04-18T18:45:25.872Z,102690.72
2023-04-18T18:47:52.427Z,102693.13
2023-04-18T18:50:18.897Z,102686.81
2023-04-18T18:52:45.405Z,102693.66
2023-04-18T18:55:12.086Z,102697.75
2023-04-18T18:57:38.541Z,102700.28
2023-04-18T19:00:10.909Z,102703.66
2023-04-18T19:02:38.766Z,102706.63
2023-04-18T19:05:05.996Z,102700.81
2023-04-18T19:07:32.428Z,102709.22
2023-04-18T19:10:00.478Z,102719.47
2023-04-18T19:12:28.117Z,102722.53
2023-04-18T19:14:54.587Z,102726.00
2023-04-18T19:17:24.509Z,102724.66
2023-04-18T19:19:52.019Z,102730.13
2023-04-18T19:22:18.545Z,102731.84
2023-04-18T19:24:44.981Z,102729.13
2023-04-18T19:27:11.409Z,102736.41
2023-04-18T19:29:39.536Z,102742.66
2023-04-18T19:32:06.381Z,102746.03
2023-04-18T19:34:32.905Z,102743.19
2023-04-18T19:36:59.961Z,102754.00
2023-04-18T19:39:26.704Z,102749.28
2023-04-18T19:41:53.203Z,102752.41
2023-04-18T19:44:19.652Z,102751.28
2023-04-18T19:46:46.066Z,102760.94
2023-04-18T19:49:12.913Z,102757.06
2023-04-18T19:51:40.298Z,102769.28
2023-04-18T19:54:06.827Z,102765.75
2023-04-18T19:56:33.273Z,102764.16
2023-04-18T19:58:59.876Z,102760.22
2023-04-18T20:01:26.305Z,102765.66
2023-04-18T20:03:53.983Z,102766.00
2023-04-18T20:06:20.513Z,102771.06
2023-04-18T20:08:47.011Z,102772.44
2023-04-18T20:11:14.187Z,102776.53
2023-04-18T20:13:41.265Z,102769.06
2023-04-18T20:16:08.909Z,102774.47
2023-04-18T20:18:37.731Z,102771.72
2023-04-18T20:21:06.796Z,102774.78
2023-04-18T20:23:33.974Z,102782.91
2023-04-18T20:26:00.454Z,102779.53
2023-04-18T20:28:26.950Z,102785.66
2023-04-18T20:30:53.386Z,102777.19
2023-04-18T20:33:19.890Z,102786.69
2023-04-18T20:35:46.677Z,102784.69
2023-04-18T20:38:14.314Z,102780.50
2023-04-18T20:40:44.753Z,102785.06
2023-04-18T20:43:12.609Z,102793.19
2023-04-18T20:45:42.681Z,102779.84
2023-04-18T20:48:09.528Z,102791.84
2023-04-18T20:50:36.024Z,102784.63
2023-04-18T20:53:03.960Z,102782.41
2023-04-18T20:55:30.422Z,102787.16
2023-04-18T20:57:56.967Z,102780.06
2023-04-18T21:00:23.446Z,102789.00
2023-04-18T21:02:49.996Z,102794.25
2023-04-18T21:05:16.499Z,102787.16
2023-04-18T21:07:44.080Z,102793.75
2023-04-18T21:10:12.153Z,102790.88
2023-04-18T21:12:38.572Z,102802.00
2023-04-18T21:15:05.621Z,102793.56
2023-04-18T21:17:32.130Z,102801.34
2023-04-18T21:19:58.571Z,102798.13
2023-04-18T21:22:25.083Z,102793.59
2023-04-18T21:24:51.511Z,102794.09
2023-04-18T21:27:17.933Z,102800.34
2023-04-18T21:29:44.373Z,102796.97
2023-04-18T21:32:10.802Z,102808.97
2023-04-18T21:34:37.272Z,102799.00
2023-04-18T21:37:03.727Z,102809.13
2023-04-18T21:39:30.113Z,102799.53
2023-04-18T21:41:57.125Z,102803.75
2023-04-18T21:44:23.574Z,102803.41
2023-04-18T21:46:49.996Z,102807.97
2023-04-18T21:49:16.518Z,102798.34
2023-04-18T21:51:43.314Z,102800.72
2023-04-18T21:54:09.740Z,102798.53
2023-04-18T21:56:36.140Z,102796.00
2023-04-18T21:59:02.516Z,102805.97
2023-04-18T22:01:29.050Z,102800.38
2023-04-18T22:03:56.045Z,102797.38
2023-04-18T22:06:23.225Z,102802.41
2023-04-18T22:08:49.984Z,102799.03
2023-04-18T22:11:16.418Z,102794.66
2023-04-18T22:13:44.929Z,102798.38
2023-04-18T22:16:11.975Z,102797.03
2023-04-18T22:18:38.424Z,102796.66
2023-04-18T22:21:04.880Z,102794.78
2023-04-18T22:23:31.403Z,102789.19
2023-04-18T22:25:57.845Z,102791.88
2023-04-18T22:28:24.441Z,102792.91
2023-04-18T22:30:51.184Z,102794.09
2023-04-18T22:33:17.595Z,102796.63
2023-04-18T22:35:44.069Z,102799.97
2023-04-18T22:38:10.497Z,102797.13
2023-04-18T22:40:36.959Z,102788.53
2023-04-18T22:43:03.470Z,102796.13
2023-04-18T22:45:29.854Z,102796.78
2023-04-18T22:47:56.358Z,102795.25
2023-04-18T22:50:22.854Z,102808.41
2023-04-18T22:52:50.514Z,102804.88
2023-04-18T22:55:17.391Z,102812.44
2023-04-18T22:57:43.836Z,102806.19
2023-04-18T23:00:11.034Z,102806.38
2023-04-18T23:02:37.765Z,102800.28
2023-04-18T23:05:06.857Z,102812.41
2023-04-18T23:07:33.338Z,102812.22
2023-04-18T23:09:59.705Z,102817.94
2023-04-18T23:12:26.795Z,102814.25
2023-04-18T23:14:53.240Z,102821.50
2023-04-18T23:17:19.685Z,102818.78
2023-04-18T23:19:46.216Z,102827.06
2023-04-18T23:22:12.699Z,102822.34
2023-04-18T23:24:39.064Z,102828.22
2023-04-18T23:27:05.800Z,102824.53
2023-04-18T23:29:36.619Z,102818.63
2023-04-18T23:32:03.222Z,102822.50
2023-04-18T23:34:29.670Z,102824.19
2023-04-18T23:36:56.067Z,102816.94
2023-04-18T23:39:24.218Z,102815.94
2023-04-18T23:41:50.696Z,102813.25
2023-04-18T23:44:17.166Z,102815.25
2023-04-18T23:46:43.665Z,102813.25
2023-04-18T23:49:10.390Z,102815.81
2023-04-18T23:51:37.637Z,102816.09
2023-04-18T23:54:04.088Z,102811.38
2023-04-18T23:56:30.550Z,102810.38
2023-04-18T23:58:57.369Z,102807.00
